Time;durP1;ratioP1;P1;durP2;ratioP2;P2;SDS_P1;SDS_P2;PMS_P1;PMS_P2;Temp;Humidity;BMP_temperature;BMP_pressure;BME280_temperature;BME280_humidity;BME280_pressure;Samples;Min_cycle;Max_cycle;Signal;HPM_P1;HPM_P2
2022/10/02 00:02:29;;;;;;;5.95;4.78;;;14.70;99.90;;;;;;5075947;28;20040;-81
2022/10/02 00:05:06;;;;;;;7.95;5.63;;;14.80;99.90;;;;;;5075869;28;20028;-81
2022/10/02 00:07:41;;;;;;;12.65;5.47;;;14.80;99.90;;;;;;5075892;28;20024;-82
2022/10/02 00:10:24;;;;;;;8.30;5.10;;;14.80;99.90;;;;;;5075750;28;20044;-82
2022/10/02 00:12:59;;;;;;;6.32;4.82;;;14.70;99.90;;;;;;5075931;28;20115;-81
2022/10/02 00:15:30;;;;;;;5.70;4.88;;;14.70;99.90;;;;;;5075587;28;20507;-81
2022/10/02 00:18:02;;;;;;;6.53;5.20;;;14.80;99.90;;;;;;5075862;28;20083;-81
2022/10/02 00:20:52;;;;;;;5.85;4.57;;;14.90;99.90;;;;;;5075600;28;20078;-82
2022/10/02 00:23:50;;;;;;;7.03;4.60;;;14.80;99.90;;;;;;5053218;28;20049;-81
2022/10/02 00:26:46;;;;;;;4.90;4.40;;;14.40;99.90;;;;;;5041810;28;20037;-82
2022/10/02 00:29:31;;;;;;;5.13;4.65;;;14.70;99.90;;;;;;5052893;28;20382;-81
2022/10/02 00:32:13;;;;;;;5.75;4.55;;;14.80;99.90;;;;;;5053448;28;20041;-82
2022/10/02 00:34:56;;;;;;;5.45;4.85;;;14.90;99.90;;;;;;5053098;28;20421;-81
2022/10/02 00:37:49;;;;;;;5.95;4.82;;;14.90;99.90;;;;;;5052953;28;20108;-81
2022/10/02 00:40:51;;;;;;;6.60;4.72;;;14.80;99.90;;;;;;5052775;28;20136;-81
2022/10/02 00:43:25;;;;;;;5.40;4.40;;;14.80;99.90;;;;;;5069647;28;20143;-81
2022/10/02 00:46:14;;;;;;;4.28;3.88;;;14.80;99.90;;;;;;5053129;28;20029;-82
2022/10/02 00:48:48;;;;;;;4.72;3.55;;;14.70;99.90;;;;;;5053051;28;20500;-81
2022/10/02 00:51:23;;;;;;;6.45;3.67;;;14.70;99.90;;;;;;5052815;28;20504;-82
2022/10/02 00:54:22;;;;;;;6.07;3.30;;;14.70;99.90;;;;;;5052830;28;20025;-81
2022/10/02 00:56:59;;;;;;;3.83;3.28;;;14.70;99.90;;;;;;5052946;28;20585;-82
2022/10/02 01:00:01;;;;;;;3.60;2.72;;;14.80;99.90;;;;;;5052926;28;20024;-81
2022/10/02 01:02:30;;;;;;;5.45;3.08;;;14.80;99.90;;;;;;5054901;28;20029;-81
2022/10/02 01:04:57;;;;;;;3.10;2.78;;;14.70;99.90;;;;;;5053133;28;20029;-82
2022/10/02 01:07:23;;;;;;;3.75;2.83;;;14.70;99.90;;;;;;5087393;28;20434;-81
2022/10/02 01:09:49;;;;;;;4.40;2.88;;;14.70;99.90;;;;;;5054624;28;20085;-81
2022/10/02 01:12:15;;;;;;;4.28;2.95;;;14.80;99.90;;;;;;5053670;28;20021;-81
2022/10/02 01:14:41;;;;;;;3.17;2.50;;;14.70;99.90;;;;;;5054825;28;20051;-81
2022/10/02 01:17:25;;;;;;;5.00;2.60;;;14.70;99.90;;;;;;5054609;28;20101;-81
2022/10/02 01:19:51;;;;;;;5.13;2.75;;;14.60;99.90;;;;;;5054852;28;20830;-81
2022/10/02 01:22:26;;;;;;;3.40;2.58;;;14.60;99.90;;;;;;5053232;28;20025;-81
2022/10/02 01:24:56;;;;;;;3.72;2.67;;;14.50;99.90;;;;;;5054606;28;20104;-81
2022/10/02 01:27:24;;;;;;;4.43;2.42;;;14.60;99.90;;;;;;5054299;28;20036;-81
2022/10/02 01:29:55;;;;;;;5.10;2.45;;;14.60;99.90;;;;;;5054274;28;20029;-81
2022/10/02 01:32:24;;;;;;;5.45;2.60;;;14.60;99.90;;;;;;5054237;28;20111;-81
2022/10/02 01:34:52;;;;;;;4.57;2.08;;;14.80;99.90;;;;;;5054467;28;20095;-81
2022/10/02 01:37:19;;;;;;;4.50;2.50;;;14.40;99.90;;;;;;5054296;28;20029;-81
2022/10/02 01:39:45;;;;;;;3.67;2.45;;;14.40;99.90;;;;;;5054070;28;20029;-81
2022/10/02 01:42:10;;;;;;;3.92;2.30;;;14.40;99.90;;;;;;5052456;28;20025;-81
2022/10/02 01:44:36;;;;;;;3.83;2.40;;;14.40;99.90;;;;;;5054037;28;20401;-81
2022/10/02 01:47:14;;;;;;;3.47;2.22;;;14.40;99.90;;;;;;5053927;28;20053;-80
2022/10/02 01:49:39;;;;;;;4.50;2.42;;;14.40;99.90;;;;;;5054006;28;20512;-82
2022/10/02 01:52:10;;;;;;;3.03;2.50;;;14.40;99.90;;;;;;5054367;28;20021;-81
2022/10/02 01:55:02;;;;;;;3.35;2.55;;;14.40;99.90;;;;;;5054780;28;20056;-81
2022/10/02 01:57:59;;;;;;;3.45;2.22;;;14.40;99.90;;;;;;5053433;28;20041;-82
2022/10/02 02:00:30;;;;;;;5.45;2.65;;;14.30;99.90;;;;;;5055558;28;20037;-81
2022/10/02 02:03:15;;;;;;;2.63;2.10;;;14.30;99.90;;;;;;5073775;28;20024;-81
2022/10/02 02:05:47;;;;;;;2.67;2.47;;;14.30;99.90;;;;;;5073848;28;20017;-81
2022/10/02 02:08:33;;;;;;;4.30;3.22;;;14.20;99.90;;;;;;5073659;28;20024;-81
2022/10/02 02:11:15;;;;;;;3.03;2.35;;;14.10;99.90;;;;;;5073186;28;20040;-81
2022/10/02 02:14:13;;;;;;;4.90;2.60;;;14.10;99.90;;;;;;5073582;28;20591;-81
2022/10/02 02:16:44;;;;;;;2.45;2.20;;;14.10;99.90;;;;;;5073362;28;20032;-81
2022/10/02 02:19:31;;;;;;;6.40;2.80;;;14.10;99.90;;;;;;5073588;28;20491;-82
2022/10/02 02:22:17;;;;;;;3.78;2.50;;;14.10;99.90;;;;;;5073501;28;20027;-81
2022/10/02 02:24:56;;;;;;;3.47;2.42;;;14.10;99.90;;;;;;5072386;28;20024;-82
2022/10/02 02:27:26;;;;;;;3.30;2.55;;;14.10;99.90;;;;;;5072784;28;20031;-81
2022/10/02 02:29:59;;;;;;;4.93;2.92;;;14.10;99.90;;;;;;5073468;28;20036;-81
2022/10/02 02:32:30;;;;;;;4.07;3.25;;;14.00;99.90;;;;;;5052696;28;20047;-82
2022/10/02 02:35:26;;;;;;;3.78;3.42;;;14.10;99.90;;;;;;5053579;28;20032;-82
2022/10/02 02:38:04;;;;;;;5.70;4.00;;;14.10;99.90;;;;;;5053353;28;20033;-82
2022/10/02 02:40:35;;;;;;;4.22;3.83;;;14.20;99.90;;;;;;5052572;28;20496;-81
2022/10/02 02:43:32;;;;;;;4.80;3.17;;;14.20;99.90;;;;;;5052832;28;20036;-81
2022/10/02 02:46:02;;;;;;;5.30;2.88;;;14.20;99.90;;;;;;5052755;28;20057;-81
2022/10/02 02:48:35;;;;;;;5.38;3.50;;;14.30;99.90;;;;;;5052958;28;20040;-82
2022/10/02 02:51:10;;;;;;;3.70;3.30;;;14.30;99.90;;;;;;5052940;28;20017;-82
2022/10/02 02:53:50;;;;;;;6.18;3.20;;;14.30;99.90;;;;;;5052562;28;20020;-82
2022/10/02 02:56:18;;;;;;;5.57;2.70;;;14.40;99.90;;;;;;5052710;28;20115;-82
2022/10/02 02:58:53;;;;;;;4.72;2.75;;;14.40;99.90;;;;;;5052754;28;20044;-82
2022/10/02 03:01:19;;;;;;;3.60;2.80;;;14.50;99.90;;;;;;5064552;28;20161;-81
2022/10/02 03:03:44;;;;;;;6.15;3.10;;;14.60;99.90;;;;;;5072694;28;20070;-81
2022/10/02 03:06:19;;;;;;;5.13;3.08;;;14.50;99.90;;;;;;5071768;28;20020;-82
2022/10/02 03:08:49;;;;;;;5.20;3.28;;;14.50;99.90;;;;;;5072222;28;20028;-82
2022/10/02 03:11:38;;;;;;;3.45;3.00;;;14.50;99.90;;;;;;5072507;28;20077;-82
2022/10/02 03:14:26;;;;;;;5.05;2.67;;;14.60;99.90;;;;;;5072474;28;20039;-82
2022/10/02 03:17:10;;;;;;;4.85;3.22;;;14.60;99.90;;;;;;5072290;28;20036;-82
2022/10/02 03:19:36;;;;;;;4.15;2.78;;;14.60;99.90;;;;;;5072290;28;20029;-81
2022/10/02 03:22:19;;;;;;;4.97;2.60;;;14.70;99.90;;;;;;5072818;28;20021;-82
2022/10/02 03:24:50;;;;;;;6.32;2.90;;;14.60;99.90;;;;;;5072270;28;20029;-82
2022/10/02 03:27:31;;;;;;;3.05;2.50;;;14.70;99.90;;;;;;5072311;28;20112;-81
2022/10/02 03:30:07;;;;;;;4.65;2.72;;;14.70;99.90;;;;;;5072110;28;20040;-81
2022/10/02 03:32:34;;;;;;;5.22;2.75;;;14.70;99.90;;;;;;5072068;28;20025;-81
2022/10/02 03:35:05;;;;;;;4.03;2.83;;;14.70;99.90;;;;;;5071696;28;20032;-81
2022/10/02 03:37:31;;;;;;;5.75;2.90;;;14.70;99.90;;;;;;5070529;28;20033;-82
2022/10/02 03:39:59;;;;;;;4.13;2.65;;;14.70;99.90;;;;;;5071925;28;20033;-82
2022/10/02 03:42:28;;;;;;;4.35;2.65;;;14.80;99.90;;;;;;5072042;28;20032;-82
2022/10/02 03:44:54;;;;;;;3.03;2.50;;;14.80;99.90;;;;;;5072260;28;20029;-82
2022/10/02 03:47:20;;;;;;;3.45;2.47;;;14.70;99.90;;;;;;5072000;28;20035;-81
2022/10/02 03:49:45;;;;;;;3.60;2.40;;;14.70;99.90;;;;;;5072108;28;20048;-81
2022/10/02 03:52:20;;;;;;;3.42;2.80;;;14.30;99.90;;;;;;5071857;28;20035;-82
2022/10/02 03:54:48;;;;;;;3.83;2.50;;;14.30;99.90;;;;;;5072053;28;20437;-81
2022/10/02 03:57:24;;;;;;;4.53;2.45;;;14.30;99.90;;;;;;5073235;28;20029;-81
2022/10/02 04:00:00;;;;;;;2.60;2.28;;;14.50;99.90;;;;;;5072543;28;20116;-82
2022/10/02 04:02:55;;;;;;;3.90;2.85;;;14.50;99.90;;;;;;5071964;28;20024;-82
2022/10/02 04:05:35;;;;;;;5.10;2.40;;;14.60;99.90;;;;;;5071363;28;20044;-82
2022/10/02 04:08:13;;;;;;;5.50;2.90;;;14.70;99.90;;;;;;5071866;28;20048;-81
2022/10/02 04:11:03;;;;;;;4.15;2.65;;;14.60;99.90;;;;;;5072338;28;20503;-81
2022/10/02 04:13:29;;;;;;;3.53;3.00;;;14.50;99.90;;;;;;5071737;28;20106;-81
2022/10/02 04:16:07;;;;;;;5.10;3.08;;;14.50;99.90;;;;;;5071804;28;20108;-81
2022/10/02 04:18:55;;;;;;;4.72;2.65;;;14.70;99.90;;;;;;5071755;28;20043;-82
2022/10/02 04:21:47;;;;;;;2.85;2.40;;;14.70;99.90;;;;;;5071480;28;20089;-82
2022/10/02 04:24:35;;;;;;;3.58;2.70;;;14.70;99.90;;;;;;5072014;28;20527;-82
2022/10/02 04:27:24;;;;;;;3.10;2.83;;;14.70;99.90;;;;;;5070703;28;20039;-82
2022/10/02 04:30:08;;;;;;;6.03;2.88;;;14.70;99.90;;;;;;5071609;28;20078;-82
2022/10/02 04:32:35;;;;;;;3.08;2.78;;;14.70;99.90;;;;;;5051537;28;20021;-81
2022/10/02 04:35:11;;;;;;;3.30;2.80;;;15.10;99.90;;;;;;5051230;28;20040;-82
2022/10/02 04:38:13;;;;;;;3.72;2.70;;;14.80;99.90;;;;;;5050167;28;20039;-81
2022/10/02 04:40:51;;;;;;;3.25;2.30;;;14.80;99.90;;;;;;5051585;28;20032;-82
2022/10/02 04:43:37;;;;;;;4.60;2.50;;;14.80;99.90;;;;;;5051464;28;20507;-81
2022/10/02 04:46:38;;;;;;;2.40;2.20;;;14.90;99.90;;;;;;5051444;28;20029;-82
2022/10/02 04:49:19;;;;;;;3.65;2.60;;;14.90;99.90;;;;;;5033526;28;20218;-81
2022/10/02 04:52:06;;;;;;;3.70;2.70;;;14.70;99.90;;;;;;5032903;28;20462;-81
2022/10/02 04:55:28;;;;;;;3.25;2.70;;;14.40;99.90;;;;;;5033853;28;20462;-81
2022/10/02 04:58:12;;;;;;;3.88;2.65;;;14.40;99.90;;;;;;4993680;28;20030;-82
2022/10/02 05:01:14;;;;;;;3.33;2.45;;;14.60;99.90;;;;;;4999989;28;20121;-81
2022/10/02 05:03:51;;;;;;;4.38;2.75;;;14.60;99.90;;;;;;5012593;28;20038;-81
2022/10/02 05:06:27;;;;;;;3.65;2.80;;;14.50;99.90;;;;;;5012880;28;20044;-81
2022/10/02 05:09:00;;;;;;;5.65;2.80;;;14.60;99.90;;;;;;5013884;28;20069;-81
2022/10/02 05:11:44;;;;;;;5.65;3.33;;;14.60;99.90;;;;;;5012888;28;20022;-81
2022/10/02 05:14:34;;;;;;;3.65;3.10;;;14.50;99.90;;;;;;5012707;28;20125;-82
2022/10/02 05:17:12;;;;;;;4.40;3.20;;;14.60;99.90;;;;;;5012400;28;20383;-81
2022/10/02 05:19:46;;;;;;;3.58;3.08;;;14.60;99.90;;;;;;5012300;28;20125;-82
2022/10/02 05:22:27;;;;;;;4.80;3.30;;;14.60;99.90;;;;;;5012615;28;20030;-81
2022/10/02 05:25:00;;;;;;;8.85;3.78;;;14.70;99.90;;;;;;5012426;28;20088;-81
2022/10/02 05:27:41;;;;;;;4.10;2.83;;;14.80;99.90;;;;;;5000385;28;20570;-81
2022/10/02 05:30:15;;;;;;;5.68;2.80;;;14.70;99.90;;;;;;5056366;28;20050;-81
2022/10/02 05:32:50;;;;;;;4.32;2.88;;;14.70;99.90;;;;;;5073960;28;20496;-82
2022/10/02 05:35:35;;;;;;;4.05;2.67;;;14.70;99.90;;;;;;5074211;28;20020;-81
2022/10/02 05:38:17;;;;;;;3.33;2.22;;;14.70;99.90;;;;;;5074111;28;20634;-82
2022/10/02 05:41:01;;;;;;;3.17;2.50;;;14.80;99.90;;;;;;5074273;28;20024;-81
2022/10/02 05:43:29;;;;;;;3.80;2.63;;;14.90;99.90;;;;;;5074516;28;20025;-81
2022/10/02 05:45:59;;;;;;;3.80;2.75;;;14.90;99.90;;;;;;5073089;28;20040;-82
2022/10/02 05:48:53;;;;;;;4.82;2.58;;;14.90;99.90;;;;;;5073610;28;20389;-81
2022/10/02 05:51:38;;;;;;;3.97;3.28;;;14.90;99.90;;;;;;5072702;28;20036;-82
2022/10/02 05:54:14;;;;;;;3.40;3.10;;;14.90;99.90;;;;;;5074203;28;20168;-82
2022/10/02 05:56:49;;;;;;;3.97;3.15;;;14.90;99.90;;;;;;5074227;28;20021;-82
2022/10/02 05:59:51;;;;;;;3.50;3.10;;;14.70;99.90;;;;;;5073611;28;20032;-81
2022/10/02 06:02:33;;;;;;;3.15;2.80;;;14.80;99.90;;;;;;5052450;28;20044;-82
2022/10/02 06:05:23;;;;;;;3.67;2.75;;;14.80;99.90;;;;;;5052811;28;20108;-82
2022/10/02 06:07:55;;;;;;;3.03;2.75;;;14.90;99.90;;;;;;5053457;28;20024;-82
2022/10/02 06:10:28;;;;;;;4.32;3.10;;;14.90;99.90;;;;;;5053413;28;20119;-81
2022/10/02 06:13:04;;;;;;;2.97;2.58;;;15.00;99.90;;;;;;5052197;28;20453;-82
2022/10/02 06:15:41;;;;;;;5.10;3.25;;;15.00;99.90;;;;;;5053288;28;20448;-81
2022/10/02 06:18:15;;;;;;;6.88;4.78;;;15.10;99.90;;;;;;5053142;28;20041;-82
2022/10/02 06:20:47;;;;;;;7.00;5.18;;;15.10;99.90;;;;;;5053532;28;20022;-82
2022/10/02 06:23:25;;;;;;;7.80;5.53;;;15.10;99.90;;;;;;5053300;28;20111;-81
2022/10/02 06:25:57;;;;;;;6.45;5.07;;;15.10;99.90;;;;;;5053514;28;20025;-81
2022/10/02 06:28:37;;;;;;;6.47;5.10;;;15.10;99.90;;;;;;5052819;28;20025;-82
2022/10/02 06:31:20;;;;;;;7.07;5.03;;;15.10;99.90;;;;;;5062339;28;20035;-82
2022/10/02 06:33:45;;;;;;;6.20;5.05;;;15.00;99.90;;;;;;5072661;28;20041;-82
2022/10/02 06:36:49;;;;;;;8.63;4.90;;;15.00;99.90;;;;;;5073063;28;20039;-83
2022/10/02 06:39:41;;;;;;;5.20;4.70;;;15.10;99.90;;;;;;5072866;28;20120;-82
2022/10/02 06:42:46;;;;;;;6.63;4.63;;;15.10;99.90;;;;;;5073053;28;20036;-81
2022/10/02 06:45:57;;;;;;;7.28;4.97;;;15.10;99.90;;;;;;5072408;28;20515;-82
2022/10/02 06:48:22;;;;;;;5.75;5.07;;;15.20;99.90;;;;;;5072854;28;20024;-82
2022/10/02 06:51:31;;;;;;;5.03;4.45;;;15.30;99.90;;;;;;5072948;28;20093;-81
2022/10/02 06:54:05;;;;;;;5.13;4.50;;;15.30;99.90;;;;;;5050506;28;20551;-81
2022/10/02 06:56:43;;;;;;;6.47;4.20;;;15.40;99.90;;;;;;5050754;28;20071;-81
2022/10/02 06:59:47;;;;;;;5.85;4.70;;;15.40;99.90;;;;;;5050688;28;20041;-81
2022/10/02 07:02:28;;;;;;;5.90;4.90;;;15.40;99.90;;;;;;5050629;28;20063;-82
2022/10/02 07:05:15;;;;;;;7.35;5.00;;;15.40;99.90;;;;;;5033710;28;20547;-81
2022/10/02 07:07:56;;;;;;;7.30;4.88;;;15.40;99.90;;;;;;5050310;28;20114;-81
2022/10/02 07:10:38;;;;;;;8.60;5.22;;;15.40;99.90;;;;;;5049789;28;20013;-82
2022/10/02 07:13:11;;;;;;;6.65;5.35;;;15.10;99.90;;;;;;5050174;28;20104;-81
2022/10/02 07:15:48;;;;;;;8.85;7.95;;;14.90;99.90;;;;;;5050410;28;20067;-82
2022/10/02 07:18:36;;;;;;;8.80;7.28;;;14.80;99.90;;;;;;5050127;28;20037;-82
2022/10/02 07:21:40;;;;;;;6.82;5.88;;;14.80;99.90;;;;;;5050407;28;20029;-81
2022/10/02 07:24:43;;;;;;;6.60;6.00;;;15.10;99.90;;;;;;5040981;28;20401;-81
2022/10/02 07:27:13;;;;;;;7.28;5.82;;;15.20;99.90;;;;;;5049787;28;20463;-82
2022/10/02 07:29:50;;;;;;;7.53;5.68;;;15.30;99.90;;;;;;5049851;28;20078;-82
2022/10/02 07:32:42;;;;;;;7.55;5.60;;;15.50;99.90;;;;;;5071532;28;20020;-81
2022/10/02 07:35:29;;;;;;;6.60;5.47;;;15.80;99.90;;;;;;5072125;28;20064;-82
2022/10/02 07:38:12;;;;;;;5.45;4.93;;;15.80;99.90;;;;;;5071907;28;20041;-81
2022/10/02 07:40:44;;;;;;;7.18;4.70;;;15.90;99.90;;;;;;5071790;28;20021;-81
2022/10/02 07:43:20;;;;;;;6.25;4.95;;;15.70;99.90;;;;;;5071510;28;20033;-80
2022/10/02 07:46:15;;;;;;;5.30;4.47;;;16.10;99.90;;;;;;5070913;28;20032;-82
2022/10/02 07:48:41;;;;;;;5.55;4.68;;;16.30;99.90;;;;;;5070374;28;20036;-81
2022/10/02 07:51:49;;;;;;;5.78;4.07;;;16.50;99.90;;;;;;5071031;28;20028;-81
2022/10/02 07:54:17;;;;;;;4.95;4.20;;;16.60;99.90;;;;;;5072445;28;20040;-81
2022/10/02 07:56:46;;;;;;;4.80;4.13;;;16.60;99.90;;;;;;5071664;28;20032;-81
2022/10/02 07:59:15;;;;;;;4.93;4.40;;;16.70;99.90;;;;;;5071268;28;20063;-81
2022/10/02 08:01:42;;;;;;;6.90;4.22;;;16.90;99.90;;;;;;5070691;28;20029;-82
2022/10/02 08:04:18;;;;;;;6.53;4.20;;;16.90;99.90;;;;;;5071882;28;20452;-81
2022/10/02 08:06:46;;;;;;;4.72;4.18;;;16.90;99.90;;;;;;5071924;28;20036;-81
2022/10/02 08:09:22;;;;;;;5.43;4.50;;;17.10;99.90;;;;;;5070619;28;20063;-82
2022/10/02 08:12:30;;;;;;;7.47;3.90;;;17.30;99.90;;;;;;5070423;28;20024;-81
2022/10/02 08:14:57;;;;;;;4.95;4.45;;;17.90;99.90;;;;;;5071969;28;20028;-81
2022/10/02 08:17:40;;;;;;;7.30;4.57;;;17.90;99.90;;;;;;5072343;28;20047;-77
2022/10/02 08:20:21;;;;;;;6.90;5.07;;;17.90;99.90;;;;;;5072029;28;20040;-77
2022/10/02 08:23:13;;;;;;;5.50;4.85;;;17.90;99.90;;;;;;5074066;28;20551;-76
2022/10/02 08:26:05;;;;;;;5.70;5.15;;;17.60;99.90;;;;;;5075476;28;20025;-75
2022/10/02 08:28:45;;;;;;;6.18;4.97;;;17.60;99.90;;;;;;5036466;28;20056;-75
2022/10/02 08:31:13;;;;;;;6.88;5.43;;;17.60;99.90;;;;;;5052977;28;20527;-75
2022/10/02 08:33:39;;;;;;;6.72;4.63;;;17.60;99.90;;;;;;5052379;28;20045;-75
2022/10/02 08:36:25;;;;;;;5.30;4.80;;;17.60;99.90;;;;;;5033608;28;20033;-75
2022/10/02 08:38:58;;;;;;;8.40;5.70;;;17.60;99.90;;;;;;5033020;28;20489;-72
2022/10/02 08:41:41;;;;;;;8.73;5.22;;;17.80;99.90;;;;;;5032687;28;20030;-83
2022/10/02 08:44:44;;;;;;;6.00;4.82;;;18.10;99.90;;;;;;5049179;28;20565;-78
2022/10/02 08:47:28;;;;;;;5.50;4.90;;;18.60;99.90;;;;;;5045556;28;20112;-75
2022/10/02 08:50:28;;;;;;;6.32;4.47;;;19.10;99.90;;;;;;5037029;28;20037;-74
2022/10/02 08:53:11;;;;;;;5.93;4.50;;;19.90;99.90;;;;;;5051059;28;20417;-74
2022/10/02 08:56:02;;;;;;;6.05;4.20;;;23.60;99.90;;;;;;5052582;28;20057;-74
2022/10/02 08:58:52;;;;;;;5.47;4.07;;;28.10;99.90;;;;;;5052121;28;20421;-73
2022/10/02 09:01:53;;;;;;;5.82;3.65;;;31.10;99.90;;;;;;5051863;28;20527;-75
2022/10/02 09:04:43;;;;;;;4.15;3.72;;;34.10;99.90;;;;;;5052417;28;20116;-75
2022/10/02 09:07:21;;;;;;;4.43;3.75;;;36.70;99.90;;;;;;5068571;28;20029;-75
2022/10/02 09:10:22;;;;;;;4.32;3.63;;;38.30;99.90;;;;;;5073552;28;20028;-76
2022/10/02 09:13:02;;;;;;;3.50;3.00;;;39.40;99.90;;;;;;5067930;28;20029;-76
2022/10/02 09:16:11;;;;;;;3.78;2.90;;;38.70;99.90;;;;;;5074340;28;20036;-76
2022/10/02 09:19:02;;;;;;;2.95;2.65;;;39.30;99.90;;;;;;5053501;28;20447;-76
2022/10/02 09:21:55;;;;;;;4.28;2.88;;;40.10;99.90;;;;;;5074424;28;20017;-75
2022/10/02 09:25:00;;;;;;;2.75;2.40;;;40.40;99.90;;;;;;5071814;28;20162;-76
2022/10/02 09:27:50;;;;;;;2.20;2.05;;;41.30;99.90;;;;;;5062382;28;20020;-77
2022/10/02 09:30:49;;;;;;;2.78;2.10;;;40.40;99.90;;;;;;5067808;28;20021;-76
2022/10/02 09:33:26;;;;;;;2.03;1.60;;;40.90;99.90;;;;;;5060474;28;20110;-76
2022/10/02 09:36:00;;;;;;;3.20;2.30;;;39.50;99.90;;;;;;5072253;28;20024;-76
2022/10/02 09:38:48;;;;;;;2.55;2.35;;;37.80;99.90;;;;;;5074135;28;20033;-76
2022/10/02 09:41:47;;;;;;;3.25;2.40;;;37.10;99.90;;;;;;5072339;28;20107;-78
2022/10/02 09:44:44;;;;;;;3.20;2.40;;;35.20;99.90;;;;;;5056130;28;20036;-78
2022/10/02 09:47:50;;;;;;;5.00;2.72;;;30.20;99.90;;;;;;5058472;28;20035;-78
2022/10/02 09:50:33;;;;;;;4.43;2.50;;;27.10;99.90;;;;;;5039817;28;20025;-78
2022/10/02 09:53:22;;;;;;;5.63;2.42;;;26.10;99.90;;;;;;5047818;28;20052;-79
2022/10/02 09:56:21;;;;;;;7.57;2.38;;;30.10;99.90;;;;;;5050453;28;20125;-74
2022/10/02 09:59:11;;;;;;;2.72;1.75;;;30.10;99.90;;;;;;5051213;28;20049;-74
2022/10/02 10:01:54;;;;;;;3.03;2.22;;;28.00;99.90;;;;;;5045382;28;20037;-75
2022/10/02 10:04:49;;;;;;;2.50;2.30;;;27.00;99.90;;;;;;5050641;28;20041;-74
2022/10/02 10:07:42;;;;;;;6.50;3.10;;;26.70;99.90;;;;;;5050744;28;20150;-79
2022/10/02 10:10:52;;;;;;;2.67;1.85;;;25.30;99.90;;;;;;5046481;28;20115;-77
2022/10/02 10:14:01;;;;;;;2.78;1.45;;;26.70;99.90;;;;;;5047318;28;20036;-76
2022/10/02 10:16:51;;;;;;;1.73;1.48;;;34.00;99.90;;;;;;5046160;28;20531;-75
2022/10/02 10:19:47;;;;;;;2.42;1.55;;;30.40;99.90;;;;;;5050565;28;20061;-74
2022/10/02 10:22:56;;;;;;;1.38;1.27;;;28.10;99.90;;;;;;5049608;28;20500;-79
2022/10/02 10:25:49;;;;;;;1.08;0.98;;;34.00;99.90;;;;;;5058058;28;20028;-78
2022/10/02 10:28:32;;;;;;;1.50;1.23;;;33.90;99.90;;;;;;5052953;28;20017;-78
2022/10/02 10:31:23;;;;;;;1.38;1.00;;;29.30;99.90;;;;;;5061394;28;20032;-79
2022/10/02 10:34:13;;;;;;;1.20;1.08;;;34.90;99.90;;;;;;5072365;28;20445;-79
2022/10/02 10:40:19;;;;;;;1.30;1.20;;;42.50;99.90;;;;;;5072139;28;20047;-79
2022/10/02 10:43:09;;;;;;;1.20;1.10;;;34.00;99.90;;;;;;5063274;28;20556;-75
2022/10/02 10:46:05;;;;;;;0.98;0.98;;;32.00;99.90;;;;;;5071130;28;20048;-79
2022/10/02 10:48:48;;;;;;;1.73;0.80;;;28.70;99.90;;;;;;5071968;28;20039;-77
2022/10/02 10:51:34;;;;;;;1.00;0.98;;;27.30;99.90;;;;;;5072334;28;20020;-72
2022/10/02 10:54:13;;;;;;;0.90;0.90;;;26.60;99.90;;;;;;5067254;28;20033;-78
2022/10/02 10:56:43;;;;;;;1.10;0.90;;;26.40;99.90;;;;;;5053571;28;20075;-74
2022/10/02 10:59:27;;;;;;;0.88;0.88;;;26.40;99.90;;;;;;5052150;28;20064;-73
2022/10/02 11:02:26;;;;;;;2.67;1.08;;;31.00;99.90;;;;;;5068561;28;20111;-73
2022/10/02 11:05:14;;;;;;;1.40;0.90;;;28.70;99.90;;;;;;5071986;28;20094;-81
2022/10/02 11:07:49;;;;;;;1.00;0.80;;;35.10;99.90;;;;;;5040912;28;20579;-76
2022/10/02 11:10:33;;;;;;;1.10;0.80;;;38.70;99.90;;;;;;5034804;28;20053;-78
2022/10/02 11:13:40;;;;;;;1.00;0.80;;;41.40;99.90;;;;;;5029671;28;20128;-77
2022/10/02 11:16:07;;;;;;;1.05;0.95;;;42.30;99.90;;;;;;5045018;28;20119;-76
2022/10/02 11:19:04;;;;;;;2.30;0.73;;;42.20;99.90;;;;;;5044158;28;20595;-77
2022/10/02 11:22:06;;;;;;;1.35;0.60;;;40.00;99.90;;;;;;5049277;28;20021;-76
2022/10/02 11:24:54;;;;;;;0.75;0.50;;;36.60;99.90;;;;;;5049193;28;20505;-76
2022/10/02 11:27:56;;;;;;;0.68;0.40;;;36.80;99.90;;;;;;5047767;28;20028;-76
2022/10/02 11:30:40;;;;;;;0.40;0.40;;;40.90;99.90;;;;;;5049867;28;20453;-77
2022/10/02 11:33:50;;;;;;;0.30;0.30;;;42.30;99.90;;;;;;5033412;28;20041;-76
2022/10/02 11:36:51;;;;;;;0.50;0.40;;;43.10;99.90;;;;;;5009848;28;20184;-77
2022/10/02 11:39:43;;;;;;;0.32;0.32;;;34.60;99.90;;;;;;5010545;28;20492;-76
2022/10/02 11:42:45;;;;;;;0.55;0.40;;;38.40;99.90;;;;;;5010371;28;20512;-76
2022/10/02 11:45:24;;;;;;;0.80;0.50;;;41.40;99.90;;;;;;5010275;28;20034;-76
2022/10/02 11:48:13;;;;;;;0.50;0.50;;;41.90;99.90;;;;;;5010052;28;20085;-76
2022/10/02 11:51:20;;;;;;;0.90;0.90;;;41.90;99.90;;;;;;5009769;28;20036;-76
2022/10/02 11:53:58;;;;;;;0.50;0.50;;;43.30;99.90;;;;;;5010197;28;20509;-76
2022/10/02 11:56:29;;;;;;;0.50;0.40;;;41.60;99.90;;;;;;5012230;28;20112;-76
2022/10/02 11:59:17;;;;;;;1.05;0.60;;;42.50;99.90;;;;;;5013942;28;20715;-76
2022/10/02 12:01:55;;;;;;;0.57;0.57;;;43.60;99.90;;;;;;5029379;28;20039;-76
2022/10/02 12:04:42;;;;;;;0.60;0.60;;;38.60;99.90;;;;;;5033594;28;20059;-77
2022/10/02 12:07:18;;;;;;;0.73;0.40;;;39.80;99.90;;;;;;5033870;28;20103;-77
2022/10/02 12:10:02;;;;;;;0.50;0.50;;;41.50;99.90;;;;;;5033751;28;20026;-77
2022/10/02 12:12:38;;;;;;;1.48;0.50;;;41.20;99.90;;;;;;5040035;28;20041;-77
2022/10/02 12:15:09;;;;;;;0.50;0.50;;;41.20;99.90;;;;;;5055486;28;20048;-77
2022/10/02 12:17:59;;;;;;;0.40;0.40;;;40.60;99.90;;;;;;5055978;28;20041;-76
2022/10/02 12:27:13;;;;;;;0.40;0.40;;;42.10;99.90;;;;;;5050279;28;20110;-76
2022/10/02 12:30:13;;;;;;;0.50;0.50;;;42.90;99.90;;;;;;5053455;28;20068;-77
2022/10/02 12:33:09;;;;;;;1.33;0.38;;;42.40;99.40;;;;;;5052927;28;20177;-78
2022/10/02 12:35:43;;;;;;;0.50;0.50;;;42.70;98.80;;;;;;5053161;28;20049;-77
2022/10/02 12:38:33;;;;;;;1.30;0.60;;;43.20;98.00;;;;;;5052859;28;20044;-77
2022/10/02 12:41:40;;;;;;;0.40;0.40;;;42.30;97.00;;;;;;5052880;28;20037;-77
2022/10/02 12:44:43;;;;;;;0.40;0.40;;;41.80;96.90;;;;;;4974194;28;20054;-77
2022/10/02 12:47:17;;;;;;;0.47;0.40;;;42.00;97.60;;;;;;4974255;28;20037;-77
2022/10/02 12:50:03;;;;;;;0.73;0.52;;;41.70;99.90;;;;;;4973673;28;20450;-76
2022/10/02 12:52:50;;;;;;;0.70;0.70;;;41.50;96.00;;;;;;4974053;28;20038;-76
2022/10/02 12:55:52;;;;;;;0.40;0.40;;;41.70;96.90;;;;;;4973918;28;20573;-77
2022/10/02 12:58:30;;;;;;;0.30;0.30;;;41.90;98.70;;;;;;4973876;28;20413;-76
2022/10/02 13:01:29;;;;;;;0.60;0.60;;;42.60;96.90;;;;;;4988353;28;20039;-77
2022/10/02 13:04:04;;;;;;;1.38;0.40;;;41.10;96.80;;;;;;4992981;28;20043;-76
2022/10/02 13:07:15;;;;;;;0.50;0.50;;;41.10;99.90;;;;;;4993226;28;20475;-77
2022/10/02 13:10:04;;;;;;;0.50;0.50;;;42.30;99.90;;;;;;4993042;28;20031;-77
2022/10/02 13:12:49;;;;;;;0.40;0.40;;;41.50;96.00;;;;;;4990343;28;20080;-77
2022/10/02 13:15:32;;;;;;;0.40;0.40;;;41.00;96.00;;;;;;4963027;28;20022;-77
2022/10/02 13:18:00;;;;;;;0.60;0.40;;;41.60;95.90;;;;;;4982588;28;20070;-76
2022/10/02 13:20:50;;;;;;;0.40;0.40;;;41.30;95.10;;;;;;5011127;28;20081;-77
2022/10/02 13:23:37;;;;;;;0.40;0.40;;;41.70;95.80;;;;;;5012111;28;20041;-76
2022/10/02 13:26:30;;;;;;;0.40;0.40;;;41.70;95.10;;;;;;5013084;28;20529;-77
2022/10/02 13:29:05;;;;;;;0.40;0.40;;;42.10;95.20;;;;;;5012397;28;20122;-77
2022/10/02 13:31:49;;;;;;;1.38;0.43;;;41.30;96.00;;;;;;5011725;28;20122;-76
2022/10/02 13:34:35;;;;;;;0.50;0.50;;;40.90;93.70;;;;;;5012199;28;20059;-77
2022/10/02 13:37:33;;;;;;;1.13;0.60;;;41.00;94.50;;;;;;5002213;28;20084;-77
2022/10/02 13:40:17;;;;;;;0.50;0.47;;;41.30;94.90;;;;;;5004982;28;20044;-76
2022/10/02 13:43:02;;;;;;;0.50;0.50;;;38.40;93.40;;;;;;5012344;28;20065;-77
2022/10/02 13:45:37;;;;;;;0.50;0.50;;;38.70;95.30;;;;;;5024267;28;20082;-77
2022/10/02 13:48:28;;;;;;;0.65;0.50;;;39.00;94.60;;;;;;5074245;28;20032;-77
2022/10/02 13:51:06;;;;;;;0.57;0.57;;;37.50;94.90;;;;;;5072920;28;20389;-77
2022/10/02 13:53:55;;;;;;;0.50;0.50;;;36.50;96.10;;;;;;5073108;28;20119;-77
2022/10/02 13:56:36;;;;;;;1.02;0.50;;;38.50;94.80;;;;;;5073791;28;20032;-77
2022/10/02 13:59:10;;;;;;;0.43;0.43;;;38.70;95.00;;;;;;5073154;28;20042;-77
2022/10/02 14:01:48;;;;;;;0.60;0.43;;;38.80;95.10;;;;;;5073946;28;20029;-77
2022/10/02 14:04:54;;;;;;;0.50;0.50;;;39.10;95.00;;;;;;5072556;28;20031;-77
2022/10/02 14:07:41;;;;;;;1.83;0.50;;;39.10;94.90;;;;;;5050932;28;21187;-76
2022/10/02 14:10:09;;;;;;;0.45;0.45;;;39.10;93.40;;;;;;5051139;28;20037;-77
2022/10/02 14:13:02;;;;;;;1.58;0.40;;;39.20;94.50;;;;;;5051288;28;20040;-77
2022/10/02 14:15:45;;;;;;;0.95;0.52;;;38.30;94.10;;;;;;5050478;28;20131;-76
2022/10/02 14:18:21;;;;;;;0.50;0.50;;;38.30;93.50;;;;;;5051080;28;20057;-77
2022/10/02 14:20:57;;;;;;;0.60;0.50;;;38.40;99.90;;;;;;5051317;28;20021;-77